createdAt,value
2023-03-22T00:02:13.938Z,10.88
2023-03-22T00:04:43.602Z,12.57
2023-03-22T00:07:10.328Z,15.18
2023-03-22T00:09:37.046Z,5.93
2023-03-22T00:12:03.997Z,7.65
2023-03-22T00:14:30.745Z,7.55
2023-03-22T00:16:57.547Z,11.45
2023-03-22T00:19:24.336Z,11.98
2023-03-22T00:21:51.471Z,8.18
2023-03-22T00:24:18.169Z,12.48
2023-03-22T00:26:47.197Z,12.25
2023-03-22T00:29:13.944Z,11.93
2023-03-22T00:31:41.241Z,11.25
2023-03-22T00:34:07.988Z,13.10
2023-03-22T00:36:34.715Z,18.63
2023-03-22T00:39:01.404Z,6.68
2023-03-22T00:41:28.243Z,7.22
2023-03-22T00:43:54.911Z,16.08
2023-03-22T00:46:21.952Z,13.27
2023-03-22T00:48:49.012Z,10.45
2023-03-22T00:51:16.139Z,15.65
2023-03-22T00:53:43.751Z,11.55
2023-03-22T00:56:14.333Z,10.30
2023-03-22T00:58:42.126Z,12.20
2023-03-22T01:01:08.929Z,13.95
2023-03-22T01:03:35.898Z,12.20
2023-03-22T01:06:02.613Z,22.85
2023-03-22T01:08:33.218Z,13.52
2023-03-22T01:11:00.860Z,18.77
2023-03-22T01:13:27.747Z,6.53
2023-03-22T01:15:54.523Z,10.55
2023-03-22T01:18:21.278Z,10.77
2023-03-22T01:20:48.004Z,14.38
2023-03-22T01:23:14.753Z,12.15
2023-03-22T01:25:41.463Z,8.57
2023-03-22T01:28:08.700Z,10.27
2023-03-22T01:30:35.521Z,13.23
2023-03-22T01:33:02.340Z,16.67
2023-03-22T01:35:29.078Z,19.33
2023-03-22T01:37:55.812Z,21.70
2023-03-22T01:40:22.548Z,9.52
2023-03-22T01:42:49.245Z,9.40
2023-03-22T01:45:19.250Z,11.02
2023-03-22T01:47:47.898Z,13.15
2023-03-22T01:50:14.750Z,18.70
2023-03-22T01:52:41.435Z,12.77
2023-03-22T01:55:09.388Z,15.35
2023-03-22T01:57:37.911Z,13.10
2023-03-22T02:00:10.296Z,12.98
2023-03-22T02:02:37.044Z,9.98
2023-03-22T02:05:04.202Z,16.67
2023-03-22T02:07:31.844Z,18.33
2023-03-22T02:09:59.259Z,13.63
2023-03-22T02:12:50.496Z,21.48
2023-03-22T02:15:24.101Z,18.55
2023-03-22T02:18:28.935Z,17.27
2023-03-22T02:23:50.101Z,17.25
2023-03-22T02:26:46.843Z,18.67
2023-03-22T02:29:16.347Z,9.60
2023-03-22T02:31:58.484Z,13.88
2023-03-22T02:34:40.339Z,9.50
2023-03-22T02:37:27.320Z,10.98
2023-03-22T02:40:05.524Z,20.75
2023-03-22T02:42:59.514Z,25.13
2023-03-22T02:45:30.148Z,18.13
2023-03-22T02:48:07.179Z,12.35
2023-03-22T02:50:53.905Z,15.10
2023-03-22T02:54:02.925Z,12.55
2023-03-22T02:56:34.716Z,15.20
2023-03-22T02:59:03.223Z,8.60
2023-03-22T03:01:50.034Z,12.20
2023-03-22T03:04:21.235Z,13.68
2023-03-22T03:06:48.857Z,12.32
2023-03-22T03:09:19.634Z,13.57
2023-03-22T03:11:50.866Z,17.67
2023-03-22T03:14:22.308Z,16.77
2023-03-22T03:16:53.790Z,11.98
2023-03-22T03:19:25.952Z,8.38
2023-03-22T03:21:58.961Z,7.85
2023-03-22T03:24:40.165Z,11.48
2023-03-22T03:27:17.734Z,12.02
2023-03-22T03:29:54.687Z,13.50
2023-03-22T03:32:52.618Z,14.60
2023-03-22T03:35:26.087Z,14.30
2023-03-22T03:38:07.864Z,17.42
2023-03-22T03:40:37.594Z,14.82
2023-03-22T03:43:04.674Z,16.48
2023-03-22T03:45:31.449Z,11.23
2023-03-22T03:48:00.311Z,17.95
2023-03-22T03:50:27.097Z,12.63
2023-03-22T03:52:54.415Z,16.98
2023-03-22T03:55:21.726Z,13.93
2023-03-22T03:57:48.466Z,15.50
2023-03-22T04:00:15.576Z,12.55
2023-03-22T04:02:42.654Z,11.32
2023-03-22T04:05:11.018Z,9.10
2023-03-22T04:07:37.854Z,9.63
2023-03-22T04:10:05.992Z,16.35
2023-03-22T04:12:33.157Z,11.48
2023-03-22T04:14:59.932Z,10.52
2023-03-22T04:17:29.105Z,10.02
2023-03-22T04:19:58.970Z,5.15
2023-03-22T04:22:26.319Z,13.52
2023-03-22T04:24:53.016Z,11.38
2023-03-22T04:27:20.568Z,7.85
2023-03-22T04:29:51.360Z,4.35
2023-03-22T04:32:22.876Z,5.90
2023-03-22T04:34:50.325Z,4.88
2023-03-22T04:37:17.120Z,7.60
2023-03-22T04:39:43.906Z,7.25
2023-03-22T04:42:10.735Z,6.65
2023-03-22T04:44:37.474Z,7.50
2023-03-22T04:47:04.273Z,3.80
2023-03-22T04:49:31.477Z,6.07
2023-03-22T04:51:58.227Z,3.92
2023-03-22T04:54:25.130Z,6.50
2023-03-22T04:56:51.812Z,5.38
2023-03-22T04:59:20.306Z,6.20
2023-03-22T05:01:50.663Z,4.65
2023-03-22T05:04:18.118Z,6.95
2023-03-22T05:06:45.235Z,2.80
2023-03-22T05:09:12.019Z,5.75
2023-03-22T05:11:38.734Z,3.78
2023-03-22T05:14:05.750Z,5.82
2023-03-22T05:16:32.868Z,2.83
2023-03-22T05:19:02.475Z,3.28
2023-03-22T05:21:36.601Z,10.63
2023-03-22T05:24:03.493Z,5.45
2023-03-22T05:26:30.438Z,8.23
2023-03-22T05:28:57.191Z,6.00
2023-03-22T05:31:24.013Z,5.82
2023-03-22T05:33:52.038Z,5.30
2023-03-22T05:36:19.347Z,6.90
2023-03-22T05:38:46.610Z,5.22
2023-03-22T05:41:13.511Z,7.07
2023-03-22T05:43:40.807Z,3.67
2023-03-22T05:46:08.738Z,11.73
2023-03-22T05:48:36.425Z,6.32
2023-03-22T05:51:06.784Z,7.93
2023-03-22T05:53:33.549Z,5.85
2023-03-22T05:56:03.397Z,9.50
2023-03-22T05:58:30.870Z,6.80
2023-03-22T06:01:01.040Z,4.18
2023-03-22T06:03:28.419Z,3.47
2023-03-22T06:05:55.171Z,7.50
2023-03-22T06:08:24.767Z,11.95
2023-03-22T06:10:53.324Z,11.45
2023-03-22T06:13:20.373Z,6.75
2023-03-22T06:15:47.142Z,3.80
2023-03-22T06:18:13.994Z,9.48
2023-03-22T06:20:40.977Z,3.08
2023-03-22T06:23:09.169Z,8.02
2023-03-22T06:25:35.982Z,3.58
2023-03-22T06:28:02.769Z,10.38
2023-03-22T06:30:29.493Z,6.05
2023-03-22T06:33:00.438Z,8.20
2023-03-22T06:35:27.664Z,6.50
2023-03-22T06:37:54.460Z,5.63
2023-03-22T06:40:21.266Z,5.38
2023-03-22T06:42:48.314Z,5.07
2023-03-22T06:45:16.507Z,5.63
2023-03-22T06:47:44.167Z,8.73
2023-03-22T06:50:11.165Z,7.05
2023-03-22T06:52:37.968Z,6.57
2023-03-22T06:55:04.997Z,4.07
2023-03-22T06:57:31.736Z,3.53
2023-03-22T06:59:58.459Z,5.25
2023-03-22T07:02:25.178Z,10.70
2023-03-22T07:04:51.860Z,4.10
2023-03-22T07:07:18.589Z,11.45
2023-03-22T07:09:45.366Z,5.18
2023-03-22T07:12:12.167Z,12.68
2023-03-22T07:14:39.572Z,6.15
2023-03-22T07:17:06.348Z,9.55
2023-03-22T07:19:33.282Z,8.98
2023-03-22T07:22:00.026Z,13.75
2023-03-22T07:24:26.747Z,17.55
2023-03-22T07:26:53.504Z,13.73
2023-03-22T07:29:20.183Z,19.13
2023-03-22T07:31:46.909Z,10.77
2023-03-22T07:34:13.802Z,13.27
2023-03-22T07:36:40.655Z,13.27
2023-03-22T07:39:07.432Z,14.48
2023-03-22T07:41:34.204Z,11.48
2023-03-22T07:44:16.666Z,9.40
2023-03-22T07:46:44.360Z,12.10
2023-03-22T07:49:11.138Z,12.70
2023-03-22T07:51:37.873Z,14.98
2023-03-22T07:54:07.142Z,7.38
2023-03-22T07:56:34.429Z,19.83
2023-03-22T07:59:01.259Z,11.60
2023-03-22T08:01:27.968Z,16.75
2023-03-22T08:03:54.769Z,15.77
2023-03-22T08:06:21.612Z,13.27
2023-03-22T08:08:48.342Z,12.30
2023-03-22T08:11:15.605Z,24.80
2023-03-22T08:13:42.315Z,13.88
2023-03-22T08:16:09.080Z,13.40
2023-03-22T08:18:36.089Z,9.35
2023-03-22T08:21:02.850Z,11.23
2023-03-22T08:23:40.994Z,17.27
2023-03-22T08:26:09.632Z,14.68
2023-03-22T08:28:36.477Z,20.08
2023-03-22T08:31:15.796Z,17.98
2023-03-22T08:33:42.868Z,14.25
2023-03-22T08:36:12.034Z,12.40
2023-03-22T08:38:38.691Z,15.48
2023-03-22T08:41:05.465Z,15.68
2023-03-22T08:43:32.171Z,11.50
2023-03-22T08:45:58.945Z,8.70
2023-03-22T08:48:29.065Z,13.50
2023-03-22T08:50:56.092Z,8.75
2023-03-22T08:53:23.001Z,5.93
2023-03-22T08:55:49.807Z,6.70
2023-03-22T08:58:18.571Z,3.08
2023-03-22T09:00:49.063Z,6.38
2023-03-22T09:03:16.645Z,9.93
2023-03-22T09:05:43.421Z,8.55
2023-03-22T09:08:18.201Z,5.00
2023-03-22T09:10:51.614Z,9.30
2023-03-22T09:13:18.910Z,6.63
2023-03-22T09:15:45.928Z,11.93
2023-03-22T09:18:12.934Z,8.18
2023-03-22T09:20:40.051Z,7.35
2023-03-22T09:23:07.151Z,4.53
2023-03-22T09:25:33.925Z,6.72
2023-03-22T09:28:00.649Z,6.85
2023-03-22T09:30:27.400Z,6.32
2023-03-22T09:32:54.416Z,2.92
2023-03-22T09:35:21.364Z,7.70
2023-03-22T09:37:49.535Z,6.50
2023-03-22T09:40:17.346Z,7.90
2023-03-22T09:42:48.354Z,5.13
2023-03-22T09:45:46.519Z,8.23
2023-03-22T09:48:35.968Z,11.77
2023-03-22T09:51:03.665Z,6.03
2023-03-22T09:53:30.619Z,7.85
2023-03-22T09:56:00.853Z,3.03
2023-03-22T09:58:43.715Z,3.72
2023-03-22T10:01:48.385Z,3.20
2023-03-22T10:04:36.838Z,3.70
2023-03-22T10:07:10.202Z,3.92
2023-03-22T10:10:12.270Z,4.85
2023-03-22T10:13:09.385Z,2.65
2023-03-22T10:15:41.218Z,5.30
2023-03-22T10:18:11.746Z,5.20
2023-03-22T10:21:06.226Z,5.88
2023-03-22T10:26:02.628Z,1.88
2023-03-22T10:28:32.466Z,4.97
2023-03-22T10:30:59.265Z,4.18
2023-03-22T10:33:38.999Z,2.97
2023-03-22T10:36:08.271Z,2.63
2023-03-22T10:38:35.244Z,5.50
2023-03-22T10:41:01.973Z,2.53
2023-03-22T10:43:36.883Z,4.47
2023-03-22T10:46:05.053Z,4.10
2023-03-22T10:48:39.668Z,1.05
2023-03-22T10:51:06.550Z,4.18
2023-03-22T10:53:58.234Z,1.17
2023-03-22T10:56:25.122Z,2.10
2023-03-22T10:58:51.932Z,2.97
2023-03-22T11:01:27.116Z,4.38
2023-03-22T11:03:57.549Z,1.67
2023-03-22T11:06:35.330Z,3.17
2023-03-22T11:09:18.259Z,4.50
2023-03-22T11:11:53.546Z,5.73
2023-03-22T11:14:37.028Z,3.92
2023-03-22T11:17:06.641Z,5.32
2023-03-22T11:19:37.200Z,7.15
2023-03-22T11:22:06.514Z,2.42
2023-03-22T11:24:33.703Z,3.97
2023-03-22T11:27:24.290Z,3.88
2023-03-22T11:29:52.594Z,5.47
2023-03-22T11:32:27.629Z,6.72
2023-03-22T11:35:05.035Z,3.95
2023-03-22T11:37:31.846Z,9.57
2023-03-22T11:40:02.193Z,11.15
2023-03-22T11:42:28.957Z,2.67
2023-03-22T11:44:56.057Z,5.32
2023-03-22T11:47:23.382Z,5.00
2023-03-22T11:49:50.908Z,2.30
2023-03-22T11:52:26.191Z,2.17
2023-03-22T11:54:52.992Z,6.70
2023-03-22T11:57:27.745Z,3.60
2023-03-22T12:00:01.059Z,0.50
2023-03-22T12:02:33.381Z,0.90
2023-03-22T12:05:11.307Z,1.88
2023-03-22T12:07:38.106Z,2.55
2023-03-22T12:10:06.827Z,0.20
2023-03-22T12:12:37.165Z,1.92
2023-03-22T12:15:11.039Z,5.55
2023-03-22T12:17:54.913Z,5.60
2023-03-22T12:20:33.510Z,6.30
2023-03-22T12:23:00.235Z,3.72
2023-03-22T12:25:34.116Z,1.17
2023-03-22T12:28:07.173Z,1.05
2023-03-22T12:30:43.229Z,4.75
2023-03-22T12:33:15.787Z,2.75
2023-03-22T12:35:44.274Z,3.47
2023-03-22T12:38:42.468Z,4.75
2023-03-22T12:41:14.954Z,1.42
2023-03-22T12:43:59.189Z,2.40
2023-03-22T12:46:31.770Z,2.45
2023-03-22T12:49:21.682Z,3.38
2023-03-22T12:51:48.478Z,1.33
2023-03-22T12:54:15.321Z,6.53
2023-03-22T12:56:45.992Z,4.32
2023-03-22T12:59:18.294Z,1.20
2023-03-22T13:02:06.454Z,4.82
2023-03-22T13:04:51.328Z,1.70
2023-03-22T13:07:39.107Z,1.45
2023-03-22T13:10:31.027Z,1.23
2023-03-22T13:13:22.895Z,5.53
2023-03-22T13:15:56.792Z,5.13
2023-03-22T13:18:38.703Z,3.38
2023-03-22T13:21:16.452Z,4.10
2023-03-22T13:23:55.124Z,2.40
2023-03-22T13:26:33.297Z,2.90
2023-03-22T13:29:10.027Z,3.67
2023-03-22T13:31:44.923Z,7.55
2023-03-22T13:34:19.679Z,5.50
2023-03-22T13:36:50.067Z,7.43
2023-03-22T13:39:16.858Z,6.53
2023-03-22T13:41:45.999Z,7.22
2023-03-22T13:44:21.025Z,4.78
2023-03-22T13:46:51.711Z,7.82
2023-03-22T13:49:45.787Z,5.22
2023-03-22T13:52:24.414Z,7.93
2023-03-22T13:54:52.659Z,8.32
2023-03-22T13:57:46.398Z,8.63
2023-03-22T14:00:41.281Z,10.60
2023-03-22T14:03:18.125Z,11.63
2023-03-22T14:05:46.056Z,14.75
2023-03-22T14:08:21.993Z,20.45
2023-03-22T14:11:34.201Z,13.40
2023-03-22T14:14:05.064Z,15.10
2023-03-22T14:16:46.962Z,15.43
2023-03-22T14:19:22.304Z,7.65
